CAS5 weather

Aerosmith Heli Service Heliport
Qualicum Beach, British Columbia, Canada

Public forecast

Using degrees Celsius for public forecast. Weather courtesy of forecast.io.

METAR (pilot weather report)

Report is more than 2 hours old.

Closest report is Nanaimo Airport, 26.2 nm (48.5 km) SE. Retrieved 2019/07/24 04:00 UTC (2 hours ago):

CYCD 240400Z 26008G16KT 30SM FEW050 SCT075 SCT220 20/09 A3001 RMK SC1AC2CI1 LAST STFD OBS/NEXT 241300Z SLP164 DENSITY ALT 600FT

TAF (pilot weather forecast)

Forecast is more than 12 hours old.

Closest forecast is Nanaimo Airport, 26.2 nm (48.5 km) SE. Retrieved 2019/07/23 00:00 UTC (1 day ago):

TAF CYCD 232338Z 2400/2404 VRB03KT P6SM FEW050 BKN270 TEMPO 2400/2404 BKN050 RMK NXT FCST WILL BE ISSUED AT 241445Z